Time;durP1;ratioP1;P1;durP2;ratioP2;P2;SDS_P1;SDS_P2;PMS_P1;PMS_P2;Temp;Humidity;BMP_temperature;BMP_pressure;BME280_temperature;BME280_humidity;BME280_pressure;Samples;Min_cycle;Max_cycle;Signal;HPM_P1;HPM_P2
2023/05/01 00:00:03;;;;;;;18.42;11.95;;;9.90;99.90;;;;;;5027170;28;20096;-64
2023/05/01 00:02:29;;;;;;;16.75;12.43;;;9.70;99.90;;;;;;5029569;28;20099;-64
2023/05/01 00:04:55;;;;;;;15.23;10.82;;;9.80;99.90;;;;;;5018706;28;20045;-65
2023/05/01 00:07:21;;;;;;;18.08;9.98;;;9.60;99.90;;;;;;5009932;28;20551;-64
2023/05/01 00:09:47;;;;;;;18.98;11.20;;;9.50;99.90;;;;;;5014954;28;20079;-65
2023/05/01 00:12:12;;;;;;;16.85;12.13;;;9.50;99.90;;;;;;5029371;28;20052;-64
2023/05/01 00:14:38;;;;;;;19.38;11.32;;;9.50;99.90;;;;;;5028420;28;20163;-64
2023/05/01 00:17:05;;;;;;;636.40;139.98;;;9.60;99.90;;;;;;5030536;28;20045;-64
2023/05/01 00:19:31;;;;;;;19.92;12.27;;;9.50;99.90;;;;;;5023342;28;20102;-65
2023/05/01 00:21:57;;;;;;;17.58;10.27;;;9.50;99.90;;;;;;5029964;28;20044;-64
2023/05/01 00:24:23;;;;;;;16.83;11.38;;;9.60;99.90;;;;;;5029871;28;20038;-64
2023/05/01 00:26:48;;;;;;;21.92;11.68;;;9.60;99.90;;;;;;5029324;28;20132;-64
2023/05/01 00:29:15;;;;;;;18.27;10.52;;;9.70;99.90;;;;;;5028166;28;20049;-64
2023/05/01 00:31:41;;;;;;;21.30;11.27;;;9.50;99.90;;;;;;5008997;28;20401;-65
2023/05/01 00:34:07;;;;;;;15.32;10.23;;;9.60;99.90;;;;;;5019187;28;20045;-64
2023/05/01 00:36:33;;;;;;;15.48;9.90;;;9.50;99.90;;;;;;5015614;28;20041;-64
2023/05/01 00:38:58;;;;;;;14.27;9.40;;;9.40;99.90;;;;;;5023184;28;20055;-64
2023/05/01 00:41:24;;;;;;;16.83;10.05;;;9.40;99.90;;;;;;5028648;28;20053;-64
2023/05/01 00:43:49;;;;;;;12.90;9.27;;;9.40;99.90;;;;;;5023754;28;20037;-64
2023/05/01 00:46:15;;;;;;;15.57;9.77;;;9.30;99.90;;;;;;5015486;28;20401;-64
2023/05/01 00:48:41;;;;;;;13.50;9.88;;;9.30;99.90;;;;;;5025906;28;20400;-64
2023/05/01 00:51:07;;;;;;;12.70;9.00;;;9.20;99.90;;;;;;5028984;28;20046;-64
2023/05/01 00:53:33;;;;;;;11.88;8.23;;;9.20;99.90;;;;;;5028214;28;20038;-64
2023/05/01 00:55:59;;;;;;;15.38;9.15;;;9.20;99.90;;;;;;5018620;28;20104;-64
2023/05/01 00:58:25;;;;;;;12.65;8.88;;;9.10;99.90;;;;;;5018564;28;20100;-64
2023/05/01 01:00:51;;;;;;;13.90;9.13;;;9.10;99.90;;;;;;5017574;28;20435;-64
2023/05/01 01:03:18;;;;;;;14.65;8.70;;;9.20;99.90;;;;;;5026968;28;20045;-65
2023/05/01 01:05:57;;;;;;;12.85;8.57;;;9.10;99.90;;;;;;5015828;28;20037;-64
2023/05/01 01:08:29;;;;;;;13.25;8.77;;;9.10;99.90;;;;;;5010716;28;20385;-64
2023/05/01 01:11:32;;;;;;;14.23;8.68;;;9.10;99.90;;;;;;5012416;28;20042;-64
2023/05/01 01:14:18;;;;;;;14.05;9.20;;;9.10;99.90;;;;;;5023856;28;20045;-64
2023/05/01 01:17:03;;;;;;;13.65;12.27;;;9.10;99.90;;;;;;5027066;28;20046;-64
2023/05/01 01:19:48;;;;;;;13.30;8.52;;;9.10;99.90;;;;;;5014208;28;20042;-64
2023/05/01 01:22:21;;;;;;;11.07;7.75;;;9.10;99.90;;;;;;5020151;28;20044;-64
2023/05/01 01:25:24;;;;;;;13.25;8.55;;;9.10;99.90;;;;;;5018110;28;20045;-64
2023/05/01 01:28:33;;;;;;;12.73;7.95;;;9.10;99.90;;;;;;5033597;28;20111;-64
2023/05/01 01:31:21;;;;;;;11.80;8.18;;;9.20;99.90;;;;;;5018527;28;20128;-64
2023/05/01 01:34:13;;;;;;;14.68;9.77;;;9.10;99.90;;;;;;5017928;28;20049;-64
2023/05/01 01:36:53;;;;;;;15.70;8.20;;;9.10;99.90;;;;;;5015311;28;20440;-64
2023/05/01 01:39:29;;;;;;;12.43;9.55;;;9.00;99.90;;;;;;5013480;28;20128;-64
2023/05/01 01:41:57;;;;;;;11.38;8.05;;;9.10;99.90;;;;;;5020536;28;20402;-64
2023/05/01 01:44:37;;;;;;;11.88;7.93;;;9.00;99.90;;;;;;5021808;28;20037;-64
2023/05/01 01:47:07;;;;;;;11.68;7.80;;;9.00;99.90;;;;;;5012425;28;20049;-64
2023/05/01 01:49:36;;;;;;;12.15;7.90;;;8.90;99.90;;;;;;5012281;28;20492;-64
2023/05/01 01:52:04;;;;;;;15.32;11.18;;;8.90;99.90;;;;;;5014708;28;20030;-64
2023/05/01 01:54:36;;;;;;;13.95;8.75;;;8.80;99.90;;;;;;5016601;28;20383;-64
2023/05/01 01:57:03;;;;;;;13.43;8.43;;;8.80;99.90;;;;;;5020588;28;20096;-64
2023/05/01 01:59:32;;;;;;;11.60;8.95;;;10.80;99.90;;;;;;5031953;28;20037;-64
2023/05/01 02:02:00;;;;;;;11.10;7.45;;;8.80;99.90;;;;;;5028510;28;20188;-64
2023/05/01 02:04:27;;;;;;;15.02;9.10;;;8.80;99.90;;;;;;5015467;28;20053;-65
2023/05/01 02:06:55;;;;;;;10.73;8.13;;;8.90;99.90;;;;;;5011875;28;20041;-64
2023/05/01 02:09:22;;;;;;;9.30;6.88;;;8.90;99.90;;;;;;5013213;28;20038;-64
2023/05/01 02:11:49;;;;;;;11.85;8.55;;;8.90;99.90;;;;;;5013044;28;20042;-64
2023/05/01 02:14:17;;;;;;;11.63;8.10;;;8.80;99.90;;;;;;5014374;28;20034;-64
2023/05/01 02:16:43;;;;;;;10.68;8.55;;;8.80;99.90;;;;;;5032709;28;20037;-64
2023/05/01 02:19:10;;;;;;;12.70;8.73;;;8.80;99.90;;;;;;5031811;28;20492;-64
2023/05/01 02:21:37;;;;;;;11.13;7.80;;;8.80;99.90;;;;;;5032775;28;20095;-64
2023/05/01 02:24:05;;;;;;;11.68;8.82;;;8.70;99.90;;;;;;5030747;28;20052;-64
2023/05/01 02:26:37;;;;;;;13.18;8.27;;;8.70;99.90;;;;;;5032628;28;20164;-64
2023/05/01 02:29:06;;;;;;;14.90;9.18;;;8.70;99.90;;;;;;5034920;28;20096;-64
2023/05/01 02:31:31;;;;;;;11.38;8.98;;;9.10;99.90;;;;;;5017649;28;20060;-64
2023/05/01 02:33:57;;;;;;;13.10;9.30;;;8.80;99.90;;;;;;5032537;28;20511;-64
2023/05/01 02:36:22;;;;;;;15.20;8.68;;;8.70;99.90;;;;;;5031251;28;20048;-64
2023/05/01 02:38:49;;;;;;;12.05;7.85;;;8.80;99.90;;;;;;5025900;28;20337;-64
2023/05/01 02:41:16;;;;;;;9.95;8.55;;;8.70;99.90;;;;;;5029036;28;20495;-64
2023/05/01 02:43:45;;;;;;;13.15;7.90;;;8.80;99.90;;;;;;5031675;28;20076;-64
2023/05/01 02:46:12;;;;;;;14.88;10.02;;;8.70;99.90;;;;;;5032394;28;20045;-64
2023/05/01 02:48:41;;;;;;;12.05;8.90;;;8.80;99.90;;;;;;5025684;28;20030;-64
2023/05/01 02:51:07;;;;;;;10.63;7.82;;;8.80;99.90;;;;;;5029224;28;20049;-64
2023/05/01 02:53:35;;;;;;;11.30;7.75;;;8.80;99.90;;;;;;5017007;28;20040;-64
2023/05/01 02:56:03;;;;;;;13.77;9.38;;;8.90;99.90;;;;;;5028864;28;20472;-64
2023/05/01 02:58:31;;;;;;;14.32;8.38;;;8.80;99.90;;;;;;5030214;28;20033;-64
2023/05/01 03:00:57;;;;;;;9.93;7.50;;;8.90;99.90;;;;;;5020415;28;20124;-64
2023/05/01 03:03:22;;;;;;;14.57;8.10;;;8.80;99.90;;;;;;5025947;28;20128;-64
2023/05/01 03:05:48;;;;;;;11.32;8.52;;;8.80;99.90;;;;;;5032276;28;20045;-64
2023/05/01 03:08:13;;;;;;;17.05;9.75;;;8.80;99.90;;;;;;5029715;28;20077;-64
2023/05/01 03:10:43;;;;;;;13.95;8.13;;;8.70;99.90;;;;;;5031958;28;20049;-64
2023/05/01 03:13:10;;;;;;;15.38;8.45;;;8.60;99.90;;;;;;5029688;28;20033;-64
2023/05/01 03:15:36;;;;;;;15.98;8.57;;;8.70;99.90;;;;;;5031905;28;20091;-64
2023/05/01 03:18:02;;;;;;;13.23;8.85;;;8.70;99.90;;;;;;5028570;28;20045;-64
2023/05/01 03:20:28;;;;;;;16.08;9.85;;;8.60;99.90;;;;;;5032141;28;20049;-64
2023/05/01 03:22:54;;;;;;;13.93;8.73;;;8.60;99.90;;;;;;5016877;28;20054;-64
2023/05/01 03:25:20;;;;;;;13.82;9.35;;;8.60;99.90;;;;;;5018452;28;20277;-64
2023/05/01 03:27:45;;;;;;;17.48;10.30;;;7.10;99.90;;;;;;5012096;28;20050;-64
2023/05/01 03:30:11;;;;;;;11.38;8.38;;;8.60;99.90;;;;;;5010533;28;20053;-64
2023/05/01 03:32:37;;;;;;;14.38;9.80;;;8.60;99.90;;;;;;5022757;28;20533;-64
2023/05/01 03:35:03;;;;;;;13.77;9.88;;;8.50;99.90;;;;;;5028840;28;20071;-64
2023/05/01 03:37:29;;;;;;;12.90;10.07;;;8.50;99.90;;;;;;5030366;28;20467;-64
2023/05/01 03:39:54;;;;;;;15.07;9.88;;;8.50;99.90;;;;;;5030307;28;20054;-64
2023/05/01 03:42:20;;;;;;;13.90;8.43;;;8.60;99.90;;;;;;5029345;28;20503;-64
2023/05/01 03:44:45;;;;;;;12.07;9.63;;;8.60;99.90;;;;;;5010091;28;20050;-64
2023/05/01 03:47:11;;;;;;;14.85;9.52;;;8.60;99.90;;;;;;5011767;28;20038;-64
2023/05/01 03:49:36;;;;;;;16.17;11.75;;;8.60;99.90;;;;;;5007484;28;20039;-64
2023/05/01 03:52:02;;;;;;;11.50;8.25;;;8.60;99.90;;;;;;5024790;28;20049;-64
2023/05/01 03:54:27;;;;;;;11.25;9.38;;;8.60;99.90;;;;;;5019682;28;20037;-64
2023/05/01 03:56:53;;;;;;;12.60;9.90;;;8.70;99.90;;;;;;5013365;28;20242;-64
2023/05/01 03:59:19;;;;;;;13.90;8.50;;;8.60;99.90;;;;;;5014148;28;20042;-64
2023/05/01 04:01:44;;;;;;;13.02;8.60;;;8.60;99.90;;;;;;5011616;28;20153;-64
2023/05/01 04:04:10;;;;;;;17.05;11.40;;;8.60;99.90;;;;;;5030528;28;20037;-64
2023/05/01 04:06:36;;;;;;;14.77;9.55;;;8.70;99.90;;;;;;5030869;28;20103;-64
2023/05/01 04:09:02;;;;;;;13.55;8.88;;;8.70;99.90;;;;;;5026828;28;20065;-63
2023/05/01 04:11:27;;;;;;;14.38;9.02;;;8.80;99.90;;;;;;5015800;28;20411;-64
2023/05/01 04:13:53;;;;;;;11.10;8.13;;;8.70;99.90;;;;;;5011770;28;20034;-64
2023/05/01 04:16:19;;;;;;;15.82;8.68;;;8.60;99.90;;;;;;5014874;28;20054;-64
2023/05/01 04:18:44;;;;;;;11.63;9.30;;;8.70;99.90;;;;;;5028185;28;20073;-64
2023/05/01 04:21:10;;;;;;;12.48;8.48;;;8.70;99.90;;;;;;5011135;28;20100;-64
2023/05/01 04:23:35;;;;;;;13.27;9.10;;;8.70;99.90;;;;;;5017782;28;20124;-64
2023/05/01 04:26:01;;;;;;;16.58;9.68;;;8.80;99.90;;;;;;5029377;28;20548;-64
2023/05/01 04:28:29;;;;;;;12.27;8.98;;;8.70;99.90;;;;;;5013846;28;20061;-64
2023/05/01 04:30:56;;;;;;;16.92;10.50;;;8.70;99.90;;;;;;5010461;28;20067;-64
2023/05/01 04:33:22;;;;;;;17.90;8.25;;;8.80;99.90;;;;;;5013543;28;20061;-64
2023/05/01 04:35:48;;;;;;;14.65;7.97;;;8.90;99.90;;;;;;5020286;28;20045;-64
2023/05/01 04:38:13;;;;;;;14.02;8.80;;;8.80;99.90;;;;;;5010308;28;20527;-64
2023/05/01 04:40:39;;;;;;;14.55;9.75;;;8.90;99.90;;;;;;5022081;28;20041;-64
2023/05/01 04:43:04;;;;;;;10.77;8.40;;;8.80;99.90;;;;;;5015836;28;20077;-64
2023/05/01 04:45:31;;;;;;;14.57;8.30;;;8.80;99.90;;;;;;5012162;28;20079;-64
2023/05/01 04:47:56;;;;;;;12.68;8.85;;;8.80;99.90;;;;;;5009956;28;20073;-64
2023/05/01 04:50:22;;;;;;;12.30;8.60;;;8.80;99.90;;;;;;5010543;28;20416;-64
2023/05/01 04:52:48;;;;;;;9.68;7.05;;;8.80;99.90;;;;;;5017983;28;20037;-64
2023/05/01 04:55:14;;;;;;;13.60;10.18;;;8.90;99.90;;;;;;5013838;28;20045;-64
2023/05/01 04:57:39;;;;;;;14.23;12.02;;;8.80;99.90;;;;;;5009852;28;20087;-64
2023/05/01 05:00:06;;;;;;;16.42;9.07;;;8.80;99.90;;;;;;5017209;28;20068;-64
2023/05/01 05:02:32;;;;;;;19.67;9.88;;;8.90;99.90;;;;;;5029825;28;20493;-64
2023/05/01 05:04:58;;;;;;;22.98;10.18;;;8.90;99.90;;;;;;5018001;28;20073;-64
2023/05/01 05:07:23;;;;;;;13.50;9.88;;;9.10;99.90;;;;;;5030505;28;20049;-64
2023/05/01 05:09:49;;;;;;;15.05;10.90;;;9.10;99.90;;;;;;5029722;28;20077;-64
2023/05/01 05:12:14;;;;;;;14.68;11.35;;;9.20;99.90;;;;;;5029950;28;20033;-64
2023/05/01 05:14:40;;;;;;;15.63;11.82;;;9.30;99.90;;;;;;5023886;28;20182;-64
2023/05/01 05:17:06;;;;;;;14.27;9.30;;;9.40;99.90;;;;;;5013155;28;20467;-64
2023/05/01 05:19:32;;;;;;;17.05;12.80;;;9.50;99.90;;;;;;5029352;28;20072;-64
2023/05/01 05:21:57;;;;;;;14.50;10.40;;;9.60;99.90;;;;;;5028155;28;20053;-64
2023/05/01 05:24:23;;;;;;;18.48;11.10;;;9.70;99.90;;;;;;5008823;28;20583;-64
2023/05/01 05:26:49;;;;;;;13.60;10.00;;;9.80;99.90;;;;;;5012734;28;20053;-64
2023/05/01 05:29:15;;;;;;;11.52;9.50;;;9.80;99.90;;;;;;5000988;28;20041;-64
2023/05/01 05:31:40;;;;;;;19.55;12.02;;;9.90;99.90;;;;;;5013699;28;20048;-64
2023/05/01 05:34:06;;;;;;;11.75;8.80;;;10.00;99.90;;;;;;5017113;28;20041;-64
2023/05/01 05:36:32;;;;;;;12.57;9.88;;;10.00;99.90;;;;;;5024780;28;20045;-64
2023/05/01 05:38:58;;;;;;;11.43;9.70;;;10.20;99.90;;;;;;5013363;28;20092;-64
2023/05/01 05:41:24;;;;;;;15.23;11.55;;;10.20;99.90;;;;;;5011926;28;20037;-64
2023/05/01 05:43:49;;;;;;;14.70;10.32;;;10.30;99.90;;;;;;5019125;28;20038;-64
2023/05/01 05:46:15;;;;;;;14.10;8.85;;;10.40;99.90;;;;;;5017429;28;20507;-64
2023/05/01 05:48:40;;;;;;;11.57;7.72;;;10.50;99.90;;;;;;5013936;28;20061;-65
2023/05/01 05:51:06;;;;;;;12.57;8.07;;;10.60;99.90;;;;;;5021637;28;20381;-65
2023/05/01 05:53:32;;;;;;;11.68;8.82;;;10.70;99.90;;;;;;5018487;28;20072;-65
2023/05/01 05:55:57;;;;;;;14.43;8.85;;;10.80;99.90;;;;;;5018898;28;20041;-65
2023/05/01 05:58:23;;;;;;;12.60;7.82;;;10.90;99.90;;;;;;5019223;28;20060;-65
2023/05/01 06:00:49;;;;;;;14.13;9.82;;;11.00;99.90;;;;;;5003265;28;20042;-65
2023/05/01 06:03:15;;;;;;;13.02;8.88;;;11.10;99.90;;;;;;5020502;28;20045;-65
2023/05/01 06:05:42;;;;;;;10.80;8.00;;;11.20;99.90;;;;;;5018821;28;20094;-65
2023/05/01 06:08:11;;;;;;;15.57;9.98;;;11.20;99.90;;;;;;5019856;28;20068;-64
2023/05/01 06:10:38;;;;;;;12.43;10.60;;;11.40;99.90;;;;;;5021863;28;20612;-64
2023/05/01 06:13:06;;;;;;;13.57;9.52;;;11.50;99.90;;;;;;5017389;28;20045;-65
2023/05/01 06:15:32;;;;;;;13.27;8.75;;;11.70;99.90;;;;;;5020947;28;20041;-65
2023/05/01 06:17:58;;;;;;;16.88;9.70;;;11.80;99.90;;;;;;5005897;28;20468;-65
2023/05/01 06:20:23;;;;;;;12.45;8.35;;;11.90;99.90;;;;;;5021304;28;20443;-65
2023/05/01 06:22:49;;;;;;;15.40;9.65;;;11.90;99.90;;;;;;5018187;28;20041;-65
2023/05/01 06:25:15;;;;;;;13.70;8.82;;;11.90;99.90;;;;;;5013346;28;20041;-65
2023/05/01 06:27:40;;;;;;;11.40;8.52;;;12.00;99.90;;;;;;5021523;28;20054;-65
2023/05/01 06:30:07;;;;;;;13.13;8.43;;;12.10;99.90;;;;;;5012586;28;20492;-65
2023/05/01 06:32:33;;;;;;;15.32;9.32;;;12.10;99.90;;;;;;5023778;28;20087;-65
2023/05/01 06:34:58;;;;;;;16.52;9.90;;;12.10;99.90;;;;;;5014877;28;20045;-65
2023/05/01 06:37:24;;;;;;;12.63;9.10;;;12.10;99.90;;;;;;5026852;28;20045;-65
2023/05/01 06:39:49;;;;;;;18.67;9.25;;;12.20;99.90;;;;;;5018221;28;20099;-65
2023/05/01 06:42:15;;;;;;;12.90;8.77;;;12.20;99.90;;;;;;5015948;28;20065;-65
2023/05/01 06:44:44;;;;;;;12.40;10.40;;;12.30;99.90;;;;;;5026255;28;20042;-65
2023/05/01 06:47:10;;;;;;;15.43;10.63;;;12.30;99.90;;;;;;5013594;28;20180;-65
2023/05/01 06:49:35;;;;;;;12.15;9.00;;;12.40;99.90;;;;;;5014785;28;20559;-65
2023/05/01 06:52:01;;;;;;;14.77;8.90;;;12.50;99.90;;;;;;5020307;28;20045;-65
2023/05/01 06:54:26;;;;;;;11.40;9.43;;;12.60;99.90;;;;;;5016870;28;20088;-65
2023/05/01 06:56:52;;;;;;;12.65;9.45;;;12.60;99.90;;;;;;5023357;28;20034;-66
2023/05/01 06:59:18;;;;;;;13.18;9.40;;;12.80;99.90;;;;;;5026308;28;20033;-65
2023/05/01 07:01:44;;;;;;;12.13;9.27;;;12.80;99.90;;;;;;5019541;28;20069;-63
2023/05/01 07:04:09;;;;;;;10.38;8.45;;;13.10;99.90;;;;;;5022257;28;20046;-64
2023/05/01 07:06:36;;;;;;;12.48;8.90;;;13.60;99.90;;;;;;5010519;28;20053;-62
2023/05/01 07:09:02;;;;;;;11.68;8.52;;;13.30;99.90;;;;;;5013391;28;20109;-66
2023/05/01 07:11:27;;;;;;;12.73;8.27;;;13.40;99.90;;;;;;5021752;28;20065;-66
2023/05/01 07:13:53;;;;;;;13.02;8.60;;;13.60;99.90;;;;;;5018872;28;20812;-65
2023/05/01 07:16:19;;;;;;;10.98;8.32;;;13.80;99.90;;;;;;5009504;28;20562;-66
2023/05/01 07:18:45;;;;;;;11.90;8.30;;;14.60;99.90;;;;;;5019929;28;20131;-66
2023/05/01 07:21:11;;;;;;;10.00;7.57;;;14.30;99.90;;;;;;5001818;28;20484;-65
2023/05/01 07:23:37;;;;;;;12.23;8.20;;;14.60;99.90;;;;;;5001266;28;20052;-66
2023/05/01 07:26:04;;;;;;;10.60;7.75;;;14.90;99.90;;;;;;5011068;28;20069;-66
2023/05/01 07:28:30;;;;;;;10.52;7.30;;;15.20;83.30;;;;;;5018748;28;20504;-66
2023/05/01 07:30:56;;;;;;;10.85;6.93;;;15.50;1.00;;;;;;4995963;28;20099;-67
2023/05/01 07:39:05;;;;;;;18.13;7.30;;;16.20;1.00;;;;;;5109267;27;20985;-69
2023/05/01 07:41:31;;;;;;;13.23;7.93;;;16.10;1.00;;;;;;5096620;28;20405;-65
2023/05/01 07:44:00;;;;;;;14.95;7.88;;;16.10;1.00;;;;;;5096702;28;20040;-64
2023/05/01 07:46:25;;;;;;;11.40;7.07;;;16.20;99.90;;;;;;5099526;28;20047;-64
2023/05/01 07:48:51;;;;;;;14.15;7.57;;;16.30;1.00;;;;;;5103511;28;20036;-66
2023/05/01 07:51:17;;;;;;;10.27;6.85;;;16.60;99.90;;;;;;5102331;28;20494;-70
2023/05/01 07:53:45;;;;;;;9.55;6.93;;;16.70;99.90;;;;;;5099945;28;20062;-70
2023/05/01 07:56:10;;;;;;;10.85;6.70;;;16.90;1.00;;;;;;5102845;28;20043;-70
2023/05/01 07:58:36;;;;;;;13.32;7.35;;;16.90;99.90;;;;;;5097236;28;20047;-70
2023/05/01 08:01:02;;;;;;;10.98;6.63;;;16.90;99.90;;;;;;5104070;28;20039;-71
2023/05/01 08:03:29;;;;;;;12.02;6.60;;;17.00;77.80;;;;;;5086775;28;20089;-70
2023/05/01 08:05:55;;;;;;;11.18;6.72;;;17.10;1.00;;;;;;5104649;28;20048;-70
2023/05/01 08:08:20;;;;;;;11.80;6.45;;;17.10;99.90;;;;;;5105037;28;20028;-70
2023/05/01 08:10:47;;;;;;;9.10;5.90;;;17.20;99.90;;;;;;5105170;28;20058;-71
2023/05/01 08:13:12;;;;;;;9.25;5.90;;;17.40;99.90;;;;;;5102812;28;20504;-70
2023/05/01 08:15:41;;;;;;;10.85;6.13;;;17.70;99.90;;;;;;5070146;28;20047;-71
2023/05/01 08:18:10;;;;;;;11.88;6.10;;;17.70;99.90;;;;;;5103074;28;20410;-71
2023/05/01 08:20:35;;;;;;;11.07;5.60;;;17.80;32.30;;;;;;5086802;28;20032;-71
2023/05/01 08:23:01;;;;;;;9.52;5.35;;;18.10;1.00;;;;;;5104780;28;20108;-69
2023/05/01 08:25:27;;;;;;;10.60;5.35;;;18.30;1.00;;;;;;5100853;28;20032;-71
2023/05/01 08:27:52;;;;;;;8.65;5.05;;;18.40;1.00;;;;;;5101121;28;20044;-71
2023/05/01 08:30:18;;;;;;;9.15;4.90;;;18.40;1.00;;;;;;5102925;28;20040;-71
2023/05/01 08:32:44;;;;;;;9.00;4.55;;;18.30;99.90;;;;;;5102417;28;20053;-71
2023/05/01 08:35:09;;;;;;;8.30;4.43;;;18.30;99.90;;;;;;5102402;28;20046;-71
2023/05/01 08:37:35;;;;;;;8.85;4.40;;;18.40;99.90;;;;;;5099220;28;20485;-71
2023/05/01 08:40:07;;;;;;;8.88;4.80;;;18.70;99.90;;;;;;5104492;28;20367;-71
2023/05/01 08:42:34;;;;;;;9.48;4.82;;;18.50;99.90;;;;;;5082320;28;20035;-71
2023/05/01 08:45:00;;;;;;;9.40;4.88;;;18.50;99.90;;;;;;5100677;28;20136;-71
2023/05/01 08:47:28;;;;;;;10.73;5.03;;;18.60;99.90;;;;;;5103776;28;20044;-71
2023/05/01 08:49:55;;;;;;;8.00;4.93;;;18.70;99.90;;;;;;5092702;28;20040;-71
2023/05/01 08:52:21;;;;;;;7.82;4.53;;;18.90;99.90;;;;;;5089814;28;20052;-72
2023/05/01 08:54:48;;;;;;;10.80;5.65;;;19.10;99.90;;;;;;5085504;28;20052;-71
2023/05/01 08:57:15;;;;;;;10.43;5.00;;;19.10;99.90;;;;;;5087908;28;21392;-71
2023/05/01 08:59:42;;;;;;;10.60;4.78;;;19.30;99.90;;;;;;5106400;27;20562;-71
2023/05/01 09:02:09;;;;;;;8.20;4.70;;;19.60;99.90;;;;;;5089552;28;20040;-72
2023/05/01 09:04:37;;;;;;;11.07;4.13;;;19.60;99.90;;;;;;5088664;28;20040;-72
2023/05/01 09:07:03;;;;;;;7.53;4.47;;;19.70;97.40;;;;;;5073094;28;20044;-72
2023/05/01 09:09:30;;;;;;;9.32;5.03;;;19.70;54.80;;;;;;5088706;28;20626;-72
2023/05/01 09:12:19;;;;;;;7.20;4.25;;;19.90;46.10;;;;;;5085968;28;20132;-72
2023/05/01 09:14:45;;;;;;;8.35;3.70;;;19.90;52.70;;;;;;5070349;28;20044;-72
2023/05/01 09:17:12;;;;;;;8.25;3.92;;;20.00;27.00;;;;;;5071994;28;20532;-72
2023/05/01 09:19:37;;;;;;;9.73;4.68;;;19.90;1.00;;;;;;5088159;28;20387;-72
2023/05/01 09:22:03;;;;;;;10.75;4.93;;;19.80;1.00;;;;;;5088952;28;20097;-72
2023/05/01 09:24:28;;;;;;;6.72;3.85;;;19.80;1.00;;;;;;5087998;28;20067;-73
2023/05/01 09:26:56;;;;;;;12.43;4.20;;;19.90;1.00;;;;;;5088043;28;20051;-73
2023/05/01 09:29:39;;;;;;;7.30;3.80;;;20.10;1.00;;;;;;5086708;28;20063;-73
2023/05/01 09:32:27;;;;;;;8.98;4.18;;;20.20;1.00;;;;;;5087720;28;20076;-73
2023/05/01 09:34:54;;;;;;;12.93;4.50;;;20.20;1.00;;;;;;5085422;28;20054;-73
2023/05/01 09:37:29;;;;;;;8.68;3.70;;;20.20;1.00;;;;;;5068426;28;20143;-72
2023/05/01 09:40:08;;;;;;;6.88;3.90;;;20.20;1.00;;;;;;5070938;28;20146;-73
2023/05/01 09:42:39;;;;;;;8.27;3.25;;;20.10;1.00;;;;;;5083765;28;20482;-73
2023/05/01 09:45:12;;;;;;;8.43;3.22;;;20.20;1.00;;;;;;5071657;28;20043;-73
2023/05/01 09:47:38;;;;;;;6.88;2.95;;;20.10;1.00;;;;;;5085519;28;20090;-73
2023/05/01 09:50:05;;;;;;;7.05;3.22;;;19.90;1.00;;;;;;5082701;28;20438;-72
2023/05/01 09:52:32;;;;;;;7.95;2.80;;;19.80;1.00;;;;;;5085628;28;20738;-72
2023/05/01 09:55:12;;;;;;;5.68;3.10;;;19.50;1.00;;;;;;5085113;28;20039;-72
2023/05/01 09:57:38;;;;;;;4.82;2.70;;;19.10;1.00;;;;;;5084101;28;20131;-71
2023/05/01 10:00:07;;;;;;;10.30;3.05;;;18.70;1.00;;;;;;5087674;28;20097;-71
2023/05/01 10:02:32;;;;;;;5.60;2.90;;;18.50;1.00;;;;;;5087023;28;20039;-71
2023/05/01 10:04:59;;;;;;;7.07;4.03;;;18.20;1.00;;;;;;5087741;28;20032;-71
2023/05/01 10:07:25;;;;;;;7.05;3.33;;;18.00;1.00;;;;;;5087355;28;20054;-71
2023/05/01 10:09:51;;;;;;;9.32;3.25;;;17.90;1.00;;;;;;5087155;28;20409;-71
2023/05/01 10:12:24;;;;;;;8.02;2.80;;;17.70;1.00;;;;;;5086307;28;20174;-70
2023/05/01 10:14:57;;;;;;;6.97;3.13;;;17.50;1.00;;;;;;5086573;28;20032;-70
2023/05/01 10:17:22;;;;;;;7.57;3.47;;;15.90;1.00;;;;;;5085589;28;20795;-70
2023/05/01 10:19:49;;;;;;;8.07;3.08;;;17.30;1.00;;;;;;5065404;28;20036;-70
2023/05/01 10:22:15;;;;;;;12.88;3.65;;;17.10;1.00;;;;;;5083511;28;20040;-70
2023/05/01 10:24:42;;;;;;;8.00;3.63;;;17.10;1.00;;;;;;5086747;28;20047;-70
2023/05/01 10:27:09;;;;;;;7.57;3.60;;;17.00;1.00;;;;;;5089841;28;20119;-70
2023/05/01 10:29:38;;;;;;;8.68;3.83;;;16.90;1.00;;;;;;5087747;28;20747;-70
2023/05/01 10:32:06;;;;;;;12.55;4.07;;;16.80;1.00;;;;;;5084169;28;20032;-70
2023/05/01 10:34:34;;;;;;;6.55;3.92;;;16.70;1.00;;;;;;5080987;28;20036;-70
2023/05/01 10:37:05;;;;;;;7.82;4.22;;;16.60;1.00;;;;;;5086332;28;20067;-70
2023/05/01 10:39:37;;;;;;;8.98;4.47;;;16.60;1.00;;;;;;5085833;28;20044;-70
2023/05/01 10:42:13;;;;;;;10.77;5.22;;;16.50;1.00;;;;;;5084687;28;20079;-70
2023/05/01 10:44:40;;;;;;;9.63;4.75;;;16.40;1.00;;;;;;5086897;28;20028;-69
2023/05/01 10:47:26;;;;;;;9.70;5.07;;;16.50;1.00;;;;;;5070406;28;20514;-70
2023/05/01 10:50:08;;;;;;;12.85;5.70;;;16.40;1.00;;;;;;5088087;28;20043;-70
2023/05/01 10:53:08;;;;;;;9.35;5.70;;;16.50;1.00;;;;;;5087592;28;20044;-69
2023/05/01 10:55:37;;;;;;;10.82;5.88;;;16.30;1.00;;;;;;5078827;28;20040;-69
2023/05/01 10:58:03;;;;;;;11.50;6.07;;;16.20;1.00;;;;;;5077845;28;20051;-69
2023/05/01 11:00:29;;;;;;;12.02;5.90;;;16.00;1.00;;;;;;5079761;28;20048;-69
2023/05/01 11:03:20;;;;;;;11.68;6.25;;;16.00;1.00;;;;;;5087346;28;20413;-69
2023/05/01 11:06:03;;;;;;;13.70;6.57;;;16.00;1.00;;;;;;5084290;28;20079;-69
2023/05/01 11:08:37;;;;;;;10.70;6.43;;;15.90;1.00;;;;;;5087786;28;20517;-69
2023/05/01 11:11:21;;;;;;;11.68;6.93;;;15.90;1.00;;;;;;5085097;28;20040;-69
2023/05/01 11:14:03;;;;;;;13.48;7.45;;;15.90;1.00;;;;;;5081517;28;20072;-69
2023/05/01 11:16:38;;;;;;;12.90;7.57;;;15.90;1.00;;;;;;5084091;28;20036;-69
2023/05/01 11:19:34;;;;;;;16.25;8.30;;;15.70;1.00;;;;;;5070925;28;20040;-69
2023/05/01 11:22:00;;;;;;;16.33;8.45;;;15.60;1.00;;;;;;5077193;28;20582;-69
2023/05/01 11:24:32;;;;;;;11.95;8.15;;;15.40;16.80;;;;;;5084347;28;20126;-69
2023/05/01 11:27:00;;;;;;;12.02;8.02;;;15.30;33.90;;;;;;5086312;28;20036;-69
2023/05/01 11:29:32;;;;;;;15.57;8.88;;;15.30;57.20;;;;;;5087073;28;20127;-69
2023/05/01 11:31:58;;;;;;;13.95;8.68;;;15.20;79.10;;;;;;5087483;28;20517;-69
2023/05/01 11:34:25;;;;;;;15.90;9.13;;;15.20;97.30;;;;;;5083947;28;20032;-69
2023/05/01 11:36:52;;;;;;;12.00;8.80;;;15.20;99.90;;;;;;5086948;28;20456;-69
2023/05/01 11:39:18;;;;;;;14.98;9.18;;;15.20;99.90;;;;;;5086228;28;20044;-69
2023/05/01 11:41:44;;;;;;;15.82;9.27;;;15.10;99.90;;;;;;5086874;28;20036;-69
2023/05/01 11:44:17;;;;;;;15.43;8.68;;;15.20;99.90;;;;;;5084473;28;20040;-69
2023/05/01 11:46:43;;;;;;;14.68;9.52;;;15.20;99.90;;;;;;5077057;28;20044;-69
2023/05/01 11:49:10;;;;;;;14.48;9.52;;;15.10;99.90;;;;;;5085542;28;20482;-69
2023/05/01 11:51:35;;;;;;;16.35;9.70;;;15.20;99.90;;;;;;5087096;28;20052;-69
2023/05/01 11:54:03;;;;;;;15.20;9.55;;;15.20;99.90;;;;;;5086466;28;20532;-69
2023/05/01 11:56:29;;;;;;;19.10;10.30;;;15.20;99.90;;;;;;5072321;28;20151;-69
2023/05/01 11:58:56;;;;;;;13.65;9.77;;;15.20;99.90;;;;;;5085599;28;20043;-70
2023/05/01 12:01:52;;;;;;;14.98;9.82;;;15.20;99.90;;;;;;5083716;28;20032;-69
2023/05/01 12:04:26;;;;;;;16.05;9.48;;;15.30;99.90;;;;;;5065023;28;20271;-69
2023/05/01 12:06:52;;;;;;;12.82;9.18;;;15.20;99.90;;;;;;5087313;28;20036;-70
2023/05/01 12:09:23;;;;;;;15.60;9.88;;;15.20;99.90;;;;;;5087628;28;20035;-69
2023/05/01 12:11:52;;;;;;;14.60;9.52;;;15.40;99.90;;;;;;5085072;28;20046;-69
2023/05/01 12:14:20;;;;;;;15.30;9.65;;;15.30;99.90;;;;;;5070461;28;20375;-69
2023/05/01 12:16:46;;;;;;;15.63;9.90;;;15.40;99.90;;;;;;5082946;28;20087;-69
2023/05/01 12:19:13;;;;;;;15.13;10.00;;;15.50;99.90;;;;;;5084291;28;20072;-69
2023/05/01 12:21:40;;;;;;;14.27;9.70;;;15.70;99.90;;;;;;5069611;28;20046;-69
2023/05/01 12:24:17;;;;;;;15.38;10.23;;;15.70;1.00;;;;;;5085699;28;20039;-69
2023/05/01 12:26:44;;;;;;;19.25;10.88;;;15.70;1.00;;;;;;5085092;28;20028;-68
2023/05/01 12:29:10;;;;;;;20.58;11.00;;;15.60;1.00;;;;;;5086417;28;20528;-67
2023/05/01 12:31:37;;;;;;;17.98;11.30;;;16.00;1.00;;;;;;5087599;28;20071;-67
2023/05/01 12:34:06;;;;;;;18.13;11.93;;;15.60;1.00;;;;;;5088434;28;20044;-67
2023/05/01 12:36:33;;;;;;;17.70;12.15;;;15.60;1.00;;;;;;5089240;28;20106;-67
2023/05/01 12:39:05;;;;;;;17.40;12.40;;;15.70;1.00;;;;;;5090223;28;20494;-67
2023/05/01 12:41:45;;;;;;;21.35;13.95;;;15.60;24.80;;;;;;5090867;28;20135;-67
2023/05/01 12:44:17;;;;;;;17.52;14.10;;;15.60;63.90;;;;;;5092288;28;20520;-67
2023/05/01 12:46:44;;;;;;;22.05;15.10;;;16.00;99.90;;;;;;5073153;28;20222;-67
2023/05/01 12:49:17;;;;;;;16.88;14.18;;;15.50;99.90;;;;;;5088325;28;20117;-67
2023/05/01 12:51:51;;;;;;;18.00;13.63;;;15.50;99.90;;;;;;5088060;28;20040;-67
2023/05/01 12:54:26;;;;;;;19.02;14.75;;;15.50;46.00;;;;;;5087049;28;20048;-67